sensor_id;sensor_type;location;lat;lon;timestamp;pressure;altitude;pressure_sealevel;temperature;humidity
46347;BME280;32057;47.830;19.046;2023-03-04T00:02:12;100348.41;;;2.41;78.30
46347;BME280;32057;47.830;19.046;2023-03-04T00:04:38;100349.22;;;2.40;78.98
46347;BME280;32057;47.830;19.046;2023-03-04T00:07:04;100340.22;;;2.32;78.90
46347;BME280;32057;47.830;19.046;2023-03-04T00:09:29;100346.16;;;2.31;79.01
46347;BME280;32057;47.830;19.046;2023-03-04T00:11:54;100345.50;;;2.35;78.44
46347;BME280;32057;47.830;19.046;2023-03-04T00:14:20;100348.56;;;2.28;78.03
46347;BME280;32057;47.830;19.046;2023-03-04T00:16:45;100346.31;;;2.34;77.72
46347;BME280;32057;47.830;19.046;2023-03-04T00:19:13;100348.94;;;2.35;78.28
46347;BME280;32057;47.830;19.046;2023-03-04T00:21:39;100344.03;;;2.24;78.22
46347;BME280;32057;47.830;19.046;2023-03-04T00:24:04;100348.16;;;2.20;78.73
46347;BME280;32057;47.830;19.046;2023-03-04T00:26:31;100348.22;;;2.22;78.53
46347;BME280;32057;47.830;19.046;2023-03-04T00:28:56;100342.75;;;2.15;78.23
46347;BME280;32057;47.830;19.046;2023-03-04T00:31:22;100341.16;;;2.17;78.57
46347;BME280;32057;47.830;19.046;2023-03-04T00:33:47;100341.16;;;2.17;78.51
46347;BME280;32057;47.830;19.046;2023-03-04T00:36:12;100333.31;;;2.14;78.88
46347;BME280;32057;47.830;19.046;2023-03-04T00:38:39;100337.91;;;2.05;78.43
46347;BME280;32057;47.830;19.046;2023-03-04T00:41:04;100343.59;;;1.99;79.09
46347;BME280;32057;47.830;19.046;2023-03-04T00:43:30;100337.59;;;1.99;80.09
46347;BME280;32057;47.830;19.046;2023-03-04T00:45:56;100339.72;;;1.91;78.85
46347;BME280;32057;47.830;19.046;2023-03-04T00:48:22;100338.94;;;1.92;79.07
46347;BME280;32057;47.830;19.046;2023-03-04T00:50:47;100337.72;;;1.86;79.33
46347;BME280;32057;47.830;19.046;2023-03-04T00:53:15;100334.13;;;1.67;79.72
46347;BME280;32057;47.830;19.046;2023-03-04T00:55:41;100331.84;;;1.72;79.67
46347;BME280;32057;47.830;19.046;2023-03-04T00:58:06;100323.50;;;1.76;79.81
46347;BME280;32057;47.830;19.046;2023-03-04T01:00:32;100316.25;;;1.69;79.72
46347;BME280;32057;47.830;19.046;2023-03-04T01:02:57;100323.53;;;1.61;80.01
46347;BME280;32057;47.830;19.046;2023-03-04T01:05:22;100315.13;;;1.64;80.19
46347;BME280;32057;47.830;19.046;2023-03-04T01:07:48;100314.44;;;1.51;79.78
46347;BME280;32057;47.830;19.046;2023-03-04T01:10:14;100314.00;;;1.44;80.15
46347;BME280;32057;47.830;19.046;2023-03-04T01:12:40;100310.81;;;1.48;80.24
46347;BME280;32057;47.830;19.046;2023-03-04T01:15:07;100310.94;;;1.34;80.35
46347;BME280;32057;47.830;19.046;2023-03-04T01:17:33;100313.16;;;1.28;81.07
46347;BME280;32057;47.830;19.046;2023-03-04T01:19:58;100313.31;;;1.31;80.42
46347;BME280;32057;47.830;19.046;2023-03-04T01:22:24;100315.09;;;1.32;80.21
46347;BME280;32057;47.830;19.046;2023-03-04T01:24:49;100306.84;;;1.23;80.18
46347;BME280;32057;47.830;19.046;2023-03-04T01:27:15;100311.22;;;1.24;79.91
46347;BME280;32057;47.830;19.046;2023-03-04T01:29:40;100308.28;;;1.18;80.22
46347;BME280;32057;47.830;19.046;2023-03-04T01:32:06;100303.41;;;1.23;79.32
46347;BME280;32057;47.830;19.046;2023-03-04T01:34:31;100302.44;;;1.21;79.21
46347;BME280;32057;47.830;19.046;2023-03-04T01:36:56;100303.31;;;1.21;79.28
46347;BME280;32057;47.830;19.046;2023-03-04T01:39:22;100291.13;;;1.17;78.99
46347;BME280;32057;47.830;19.046;2023-03-04T01:41:47;100293.34;;;1.11;79.24
46347;BME280;32057;47.830;19.046;2023-03-04T01:44:16;100287.00;;;1.04;79.74
46347;BME280;32057;47.830;19.046;2023-03-04T01:46:47;100289.81;;;1.09;79.59
46347;BME280;32057;47.830;19.046;2023-03-04T01:49:14;100290.06;;;1.13;79.45
46347;BME280;32057;47.830;19.046;2023-03-04T01:51:43;100288.84;;;1.07;79.70
46347;BME280;32057;47.830;19.046;2023-03-04T01:54:10;100288.31;;;0.97;80.01
46347;BME280;32057;47.830;19.046;2023-03-04T01:56:38;100294.16;;;0.95;80.42
46347;BME280;32057;47.830;19.046;2023-03-04T02:01:38;100285.41;;;0.76;81.09
46347;BME280;32057;47.830;19.046;2023-03-04T02:04:04;100294.22;;;0.67;80.97
46347;BME280;32057;47.830;19.046;2023-03-04T02:06:31;100293.34;;;0.66;81.47
46347;BME280;32057;47.830;19.046;2023-03-04T02:08:57;100285.41;;;0.76;81.31
46347;BME280;32057;47.830;19.046;2023-03-04T02:11:22;100294.00;;;0.64;81.11
46347;BME280;32057;47.830;19.046;2023-03-04T02:13:48;100281.28;;;0.50;82.32
46347;BME280;32057;47.830;19.046;2023-03-04T02:16:14;100280.06;;;0.58;82.34
46347;BME280;32057;47.830;19.046;2023-03-04T02:18:39;100282.44;;;0.55;82.28
46347;BME280;32057;47.830;19.046;2023-03-04T02:26:40;100269.22;;;0.63;82.62
46347;BME280;32057;47.830;19.046;2023-03-04T02:29:08;100267.72;;;0.66;82.86
46347;BME280;32057;47.830;19.046;2023-03-04T02:31:42;100260.56;;;0.61;82.10
46347;BME280;32057;47.830;19.046;2023-03-04T02:34:15;100262.91;;;0.43;81.94
46347;BME280;32057;47.830;19.046;2023-03-04T02:36:42;100262.03;;;0.42;81.85
46347;BME280;32057;47.830;19.046;2023-03-04T02:41:54;100250.03;;;0.56;82.33
46347;BME280;32057;47.830;19.046;2023-03-04T02:44:58;100253.66;;;0.59;81.27
46347;BME280;32057;47.830;19.046;2023-03-04T02:47:16;100246.34;;;0.66;80.76
46347;BME280;32057;47.830;19.046;2023-03-04T02:49:43;100247.41;;;0.69;80.35
46347;BME280;32057;47.830;19.046;2023-03-04T02:52:16;100240.59;;;0.70;80.34
46347;BME280;32057;47.830;19.046;2023-03-04T02:54:42;100239.56;;;0.66;80.94
46347;BME280;32057;47.830;19.046;2023-03-04T02:57:09;100233.53;;;0.66;79.82
46347;BME280;32057;47.830;19.046;2023-03-04T02:59:36;100239.09;;;0.58;80.66
46347;BME280;32057;47.830;19.046;2023-03-04T03:02:02;100230.63;;;0.59;80.25
46347;BME280;32057;47.830;19.046;2023-03-04T03:04:27;100226.72;;;0.51;80.32
46347;BME280;32057;47.830;19.046;2023-03-04T03:06:53;100225.34;;;0.56;80.88
46347;BME280;32057;47.830;19.046;2023-03-04T03:09:20;100224.69;;;0.46;80.82
46347;BME280;32057;47.830;19.046;2023-03-04T03:11:45;100226.63;;;0.35;80.89
46347;BME280;32057;47.830;19.046;2023-03-04T03:14:11;100224.81;;;0.19;81.61
46347;BME280;32057;47.830;19.046;2023-03-04T03:16:36;100230.09;;;0.07;82.28
46347;BME280;32057;47.830;19.046;2023-03-04T03:19:02;100228.75;;;-0.01;82.69
46347;BME280;32057;47.830;19.046;2023-03-04T03:21:27;100234.63;;;-0.02;83.70
46347;BME280;32057;47.830;19.046;2023-03-04T03:23:53;100232.78;;;-0.05;84.00
46347;BME280;32057;47.830;19.046;2023-03-04T03:26:19;100228.88;;;-0.13;83.78
46347;BME280;32057;47.830;19.046;2023-03-04T03:28:44;100219.75;;;-0.23;84.34
46347;BME280;32057;47.830;19.046;2023-03-04T03:31:10;100216.09;;;-0.26;84.82
46347;BME280;32057;47.830;19.046;2023-03-04T03:33:35;100220.34;;;-0.27;84.55
46347;BME280;32057;47.830;19.046;2023-03-04T03:36:01;100223.34;;;-0.34;84.97
46347;BME280;32057;47.830;19.046;2023-03-04T03:38:26;100218.78;;;-0.38;85.39
46347;BME280;32057;47.830;19.046;2023-03-04T03:40:52;100222.94;;;-0.40;85.63
46347;BME280;32057;47.830;19.046;2023-03-04T03:43:18;100224.91;;;-0.36;86.16
46347;BME280;32057;47.830;19.046;2023-03-04T03:45:43;100221.56;;;-0.35;85.33
46347;BME280;32057;47.830;19.046;2023-03-04T03:48:09;100217.16;;;-0.37;85.78
46347;BME280;32057;47.830;19.046;2023-03-04T03:50:34;100216.22;;;-0.38;85.81
46347;BME280;32057;47.830;19.046;2023-03-04T03:53:00;100217.81;;;-0.40;85.98
46347;BME280;32057;47.830;19.046;2023-03-04T03:55:25;100223.53;;;-0.44;85.69
46347;BME280;32057;47.830;19.046;2023-03-04T03:57:51;100227.38;;;-0.51;86.43
46347;BME280;32057;47.830;19.046;2023-03-04T04:00:17;100228.38;;;-0.49;86.13
46347;BME280;32057;47.830;19.046;2023-03-04T04:02:42;100228.25;;;-0.50;85.68
46347;BME280;32057;47.830;19.046;2023-03-04T04:05:08;100223.72;;;-0.41;86.29
46347;BME280;32057;47.830;19.046;2023-03-04T04:07:34;100221.94;;;-0.42;86.03
46347;BME280;32057;47.830;19.046;2023-03-04T04:10:00;100216.81;;;-0.29;86.01
46347;BME280;32057;47.830;19.046;2023-03-04T04:12:25;100216.22;;;-0.38;85.52
46347;BME280;32057;47.830;19.046;2023-03-04T04:14:51;100211.53;;;-0.32;85.95
46347;BME280;32057;47.830;19.046;2023-03-04T04:17:16;100217.53;;;-0.31;86.26
46347;BME280;32057;47.830;19.046;2023-03-04T04:19:42;100210.44;;;-0.35;85.24
46347;BME280;32057;47.830;19.046;2023-03-04T04:22:13;100216.53;;;-0.33;85.80
46347;BME280;32057;47.830;19.046;2023-03-04T04:24:39;100215.94;;;-0.29;86.51
46347;BME280;32057;47.830;19.046;2023-03-04T04:27:04;100217.91;;;-0.25;86.38
46347;BME280;32057;47.830;19.046;2023-03-04T04:29:29;100219.59;;;-0.39;86.33
46347;BME280;32057;47.830;19.046;2023-03-04T04:31:55;100226.47;;;-0.38;86.76
46347;BME280;32057;47.830;19.046;2023-03-04T04:34:21;100228.47;;;-0.47;86.93
46347;BME280;32057;47.830;19.046;2023-03-04T04:36:46;100223.69;;;-0.56;87.57
46347;BME280;32057;47.830;19.046;2023-03-04T04:39:11;100222.00;;;-0.55;88.48
46347;BME280;32057;47.830;19.046;2023-03-04T04:41:40;100219.13;;;-0.60;88.08
46347;BME280;32057;47.830;19.046;2023-03-04T04:44:06;100224.25;;;-0.60;88.39
46347;BME280;32057;47.830;19.046;2023-03-04T04:46:31;100228.09;;;-0.67;88.63
46347;BME280;32057;47.830;19.046;2023-03-04T04:48:57;100232.59;;;-0.76;89.33
46347;BME280;32057;47.830;19.046;2023-03-04T04:51:22;100229.06;;;-0.78;89.17
46347;BME280;32057;47.830;19.046;2023-03-04T04:53:48;100233.78;;;-0.84;89.83
46347;BME280;32057;47.830;19.046;2023-03-04T04:56:18;100231.66;;;-0.91;90.35
46347;BME280;32057;47.830;19.046;2023-03-04T04:58:45;100239.19;;;-0.93;90.46
46347;BME280;32057;47.830;19.046;2023-03-04T05:01:11;100236.28;;;-0.86;91.19
46347;BME280;32057;47.830;19.046;2023-03-04T05:03:37;100229.06;;;-0.78;90.70
46347;BME280;32057;47.830;19.046;2023-03-04T05:06:05;100226.03;;;-0.72;90.59
46347;BME280;32057;47.830;19.046;2023-03-04T05:08:31;100222.28;;;-0.64;90.93
46347;BME280;32057;47.830;19.046;2023-03-04T05:10:56;100215.91;;;-0.57;90.28
46347;BME280;32057;47.830;19.046;2023-03-04T05:13:22;100221.50;;;-0.63;90.23
46347;BME280;32057;47.830;19.046;2023-03-04T05:15:51;100217.00;;;-0.67;90.92
46347;BME280;32057;47.830;19.046;2023-03-04T05:18:17;100225.84;;;-0.75;91.37
46347;BME280;32057;47.830;19.046;2023-03-04T05:20:43;100223.19;;;-0.77;92.27
46347;BME280;32057;47.830;19.046;2023-03-04T05:23:08;100217.88;;;-0.80;91.72
46347;BME280;32057;47.830;19.046;2023-03-04T05:25:34;100219.94;;;-0.74;92.27
46347;BME280;32057;47.830;19.046;2023-03-04T05:27:59;100223.25;;;-0.62;91.83
46347;BME280;32057;47.830;19.046;2023-03-04T05:30:26;100216.69;;;-0.58;91.79
46347;BME280;32057;47.830;19.046;2023-03-04T05:32:52;100219.13;;;-0.60;91.98
46347;BME280;32057;47.830;19.046;2023-03-04T05:35:17;100220.41;;;-0.53;92.19
46347;BME280;32057;47.830;19.046;2023-03-04T05:37:43;100219.00;;;-0.48;92.23
46347;BME280;32057;47.830;19.046;2023-03-04T05:40:09;100216.47;;;-0.48;91.98
46347;BME280;32057;47.830;19.046;2023-03-04T05:42:34;100217.53;;;-0.45;92.05
46347;BME280;32057;47.830;19.046;2023-03-04T05:44:59;100220.38;;;-0.40;92.13
46347;BME280;32057;47.830;19.046;2023-03-04T05:47:25;100219.28;;;-0.30;92.10
46347;BME280;32057;47.830;19.046;2023-03-04T05:49:50;100221.53;;;-0.22;92.08
46347;BME280;32057;47.830;19.046;2023-03-04T05:52:16;100215.47;;;-0.09;91.51
46347;BME280;32057;47.830;19.046;2023-03-04T05:54:41;100223.34;;;-0.06;91.61
46347;BME280;32057;47.830;19.046;2023-03-04T05:57:07;100213.84;;;0.07;91.14
46347;BME280;32057;47.830;19.046;2023-03-04T05:59:32;100215.19;;;0.15;90.96
46347;BME280;32057;47.830;19.046;2023-03-04T06:01:58;100210.78;;;0.12;90.35
46347;BME280;32057;47.830;19.046;2023-03-04T06:04:23;100214.69;;;0.21;91.06
46347;BME280;32057;47.830;19.046;2023-03-04T06:06:48;100213.50;;;0.15;90.35
46347;BME280;32057;47.830;19.046;2023-03-04T06:09:14;100218.22;;;0.23;90.85
46347;BME280;32057;47.830;19.046;2023-03-04T06:11:39;100214.53;;;0.32;90.80
46347;BME280;32057;47.830;19.046;2023-03-04T06:14:05;100221.09;;;0.42;90.59
46347;BME280;32057;47.830;19.046;2023-03-04T06:16:31;100220.53;;;0.48;89.97
46347;BME280;32057;47.830;19.046;2023-03-04T06:18:57;100221.81;;;0.54;89.47
46347;BME280;32057;47.830;19.046;2023-03-04T06:21:22;100226.47;;;0.62;89.47
46347;BME280;32057;47.830;19.046;2023-03-04T06:23:48;100229.31;;;0.66;88.93
46347;BME280;32057;47.830;19.046;2023-03-04T06:26:13;100223.72;;;0.73;89.01
46347;BME280;32057;47.830;19.046;2023-03-04T06:28:40;100231.50;;;0.75;89.00
46347;BME280;32057;47.830;19.046;2023-03-04T06:31:06;100233.66;;;0.82;89.07
46347;BME280;32057;47.830;19.046;2023-03-04T06:33:31;100233.63;;;0.97;89.08
46347;BME280;32057;47.830;19.046;2023-03-04T06:35:57;100232.81;;;1.13;88.25
46347;BME280;32057;47.830;19.046;2023-03-04T06:38:23;100236.69;;;1.21;87.43
46347;BME280;32057;47.830;19.046;2023-03-04T06:40:49;100234.22;;;1.23;87.89
46347;BME280;32057;47.830;19.046;2023-03-04T06:43:15;100230.59;;;1.34;87.46
46347;BME280;32057;47.830;19.046;2023-03-04T06:45:40;100227.00;;;1.47;87.06
46347;BME280;32057;47.830;19.046;2023-03-04T06:48:06;100227.44;;;1.54;85.99
46347;BME280;32057;47.830;19.046;2023-03-04T06:50:31;100232.97;;;1.62;86.25
46347;BME280;32057;47.830;19.046;2023-03-04T06:52:57;100231.19;;;1.61;86.20
46347;BME280;32057;47.830;19.046;2023-03-04T06:55:23;100226.09;;;1.77;86.82
46347;BME280;32057;47.830;19.046;2023-03-04T06:57:48;100221.94;;;1.79;85.88
46347;BME280;32057;47.830;19.046;2023-03-04T07:00:14;100222.56;;;1.75;85.80
46347;BME280;32057;47.830;19.046;2023-03-04T07:02:40;100233.09;;;1.96;85.68
46347;BME280;32057;47.830;19.046;2023-03-04T07:05:06;100232.06;;;2.09;84.04
46347;BME280;32057;47.830;19.046;2023-03-04T07:07:31;100222.75;;;2.28;84.42
46347;BME280;32057;47.830;19.046;2023-03-04T07:09:57;100227.06;;;2.45;84.22
46347;BME280;32057;47.830;19.046;2023-03-04T07:12:25;100211.19;;;2.36;82.52
46347;BME280;32057;47.830;19.046;2023-03-04T07:14:50;100219.69;;;2.35;82.74
46347;BME280;32057;47.830;19.046;2023-03-04T07:17:16;100215.34;;;2.50;82.86
46347;BME280;32057;47.830;19.046;2023-03-04T07:19:41;100220.63;;;2.70;82.01
46347;BME280;32057;47.830;19.046;2023-03-04T07:22:07;100229.41;;;2.75;81.28
46347;BME280;32057;47.830;19.046;2023-03-04T07:24:32;100229.06;;;2.85;80.92
46347;BME280;32057;47.830;19.046;2023-03-04T07:26:58;100225.34;;;2.96;80.97
46347;BME280;32057;47.830;19.046;2023-03-04T07:29:23;100216.31;;;3.05;80.58
46347;BME280;32057;47.830;19.046;2023-03-04T07:31:48;100226.88;;;3.11;80.09
46347;BME280;32057;47.830;19.046;2023-03-04T07:34:14;100215.00;;;3.31;80.13
46347;BME280;32057;47.830;19.046;2023-03-04T07:36:40;100217.56;;;3.13;79.94
46347;BME280;32057;47.830;19.046;2023-03-04T07:39:06;100207.19;;;3.29;79.74
46347;BME280;32057;47.830;19.046;2023-03-04T07:41:33;100216.50;;;3.45;78.80
46347;BME280;32057;47.830;19.046;2023-03-04T07:44:03;100216.13;;;3.55;78.95
46347;BME280;32057;47.830;19.046;2023-03-04T07:46:29;100210.63;;;3.66;78.45
46347;BME280;32057;47.830;19.046;2023-03-04T07:48:55;100204.81;;;3.70;77.67
46347;BME280;32057;47.830;19.046;2023-03-04T07:51:22;100200.69;;;3.93;77.50
46347;BME280;32057;47.830;19.046;2023-03-04T07:53:51;100210.47;;;4.00;77.51
46347;BME280;32057;47.830;19.046;2023-03-04T07:56:22;100205.03;;;3.94;75.59
46347;BME280;32057;47.830;19.046;2023-03-04T07:58:48;100208.94;;;4.05;75.94
46347;BME280;32057;47.830;19.046;2023-03-04T08:01:20;100204.06;;;4.11;75.54
46347;BME280;32057;47.830;19.046;2023-03-04T08:03:46;100204.06;;;4.11;74.90
46347;BME280;32057;47.830;19.046;2023-03-04T08:06:14;100201.63;;;4.34;74.80
46347;BME280;32057;47.830;19.046;2023-03-04T08:08:39;100194.00;;;4.56;73.43
46347;BME280;32057;47.830;19.046;2023-03-04T08:11:06;100190.13;;;4.66;73.49
46347;BME280;32057;47.830;19.046;2023-03-04T08:13:33;100189.13;;;4.84;72.73
46347;BME280;32057;47.830;19.046;2023-03-04T08:15:59;100186.97;;;4.94;71.86
46347;BME280;32057;47.830;19.046;2023-03-04T08:18:24;100179.03;;;5.11;72.44
46347;BME280;32057;47.830;19.046;2023-03-04T08:20:50;100182.81;;;4.98;70.83
46347;BME280;32057;47.830;19.046;2023-03-04T08:23:16;100176.81;;;5.20;71.36
46347;BME280;32057;47.830;19.046;2023-03-04T08:25:42;100174.94;;;5.38;70.73
46347;BME280;32057;47.830;19.046;2023-03-04T08:28:09;100170.16;;;5.25;69.90
46347;BME280;32057;47.830;19.046;2023-03-04T08:30:35;100172.03;;;5.29;70.32
46347;BME280;32057;47.830;19.046;2023-03-04T08:33:02;100169.31;;;5.49;69.64
46347;BME280;32057;47.830;19.046;2023-03-04T08:35:27;100173.69;;;5.50;69.72
46347;BME280;32057;47.830;19.046;2023-03-04T08:37:53;100172.25;;;5.58;69.51
46347;BME280;32057;47.830;19.046;2023-03-04T08:40:18;100168.97;;;5.62;68.97
46347;BME280;32057;47.830;19.046;2023-03-04T08:42:44;100158.34;;;5.54;69.00
46347;BME280;32057;47.830;19.046;2023-03-04T08:45:09;100155.13;;;5.60;68.17
46347;BME280;32057;47.830;19.046;2023-03-04T08:47:36;100152.91;;;5.69;68.68
46347;BME280;32057;47.830;19.046;2023-03-04T08:50:04;100148.47;;;5.67;68.03
46347;BME280;32057;47.830;19.046;2023-03-04T08:52:30;100151.47;;;5.77;67.92
46347;BME280;32057;47.830;19.046;2023-03-04T08:54:56;100150.53;;;5.75;67.59
46347;BME280;32057;47.830;19.046;2023-03-04T08:57:21;100138.91;;;6.11;67.26
46347;BME280;32057;47.830;19.046;2023-03-04T08:59:47;100133.72;;;6.35;67.33
46347;BME280;32057;47.830;19.046;2023-03-04T09:02:12;100133.50;;;6.54;66.25
46347;BME280;32057;47.830;19.046;2023-03-04T09:04:38;100124.50;;;6.69;65.61
46347;BME280;32057;47.830;19.046;2023-03-04T09:07:03;100124.00;;;6.81;64.95
46347;BME280;32057;47.830;19.046;2023-03-04T09:09:29;100121.69;;;6.88;63.65
46347;BME280;32057;47.830;19.046;2023-03-04T09:11:54;100103.69;;;6.91;62.97
46347;BME280;32057;47.830;19.046;2023-03-04T09:14:19;100106.84;;;6.83;63.64
46347;BME280;32057;47.830;19.046;2023-03-04T09:16:45;100102.25;;;7.01;63.98
46347;BME280;32057;47.830;19.046;2023-03-04T09:19:10;100094.94;;;7.15;62.87
46347;BME280;32057;47.830;19.046;2023-03-04T09:21:35;100089.25;;;7.28;61.94
46347;BME280;32057;47.830;19.046;2023-03-04T09:24:01;100094.44;;;7.28;60.88
46347;BME280;32057;47.830;19.046;2023-03-04T09:26:28;100101.47;;;7.32;60.50
46347;BME280;32057;47.830;19.046;2023-03-04T09:28:57;100093.28;;;7.47;59.98
46347;BME280;32057;47.830;19.046;2023-03-04T09:31:23;100100.44;;;7.56;58.35
46347;BME280;32057;47.830;19.046;2023-03-04T09:33:49;100101.69;;;7.40;58.66
46347;BME280;32057;47.830;19.046;2023-03-04T09:36:15;100107.19;;;7.51;58.63
46347;BME280;32057;47.830;19.046;2023-03-04T09:38:41;100108.69;;;7.73;59.37
46347;BME280;32057;47.830;19.046;2023-03-04T09:41:09;100102.28;;;7.60;57.67
46347;BME280;32057;47.830;19.046;2023-03-04T09:43:36;100103.50;;;7.73;58.66
46347;BME280;32057;47.830;19.046;2023-03-04T09:46:15;100103.00;;;7.86;58.83
46347;BME280;32057;47.830;19.046;2023-03-04T09:48:50;100108.44;;;7.95;58.37
46347;BME280;32057;47.830;19.046;2023-03-04T09:56:21;100092.41;;;8.09;58.77
46347;BME280;32057;47.830;19.046;2023-03-04T09:58:59;100092.56;;;8.16;57.93
46347;BME280;32057;47.830;19.046;2023-03-04T10:01:33;100080.94;;;8.34;58.30
46347;BME280;32057;47.830;19.046;2023-03-04T10:04:10;100087.69;;;8.27;57.35
46347;BME280;32057;47.830;19.046;2023-03-04T10:06:39;100075.78;;;8.02;58.85
46347;BME280;32057;47.830;19.046;2023-03-04T10:09:11;100071.38;;;8.31;59.78
46347;BME280;32057;47.830;19.046;2023-03-04T10:11:43;100061.72;;;8.61;57.76
46347;BME280;32057;47.830;19.046;2023-03-04T10:21:50;100045.44;;;8.31;58.30
46347;BME280;32057;47.830;19.046;2023-03-04T10:24:25;100048.47;;;8.47;58.98
46347;BME280;32057;47.830;19.046;2023-03-04T10:27:01;100052.25;;;8.61;57.36
46347;BME280;32057;47.830;19.046;2023-03-04T10:29:31;100054.28;;;8.74;58.46
46347;BME280;32057;47.830;19.046;2023-03-04T10:31:57;100038.16;;;8.88;58.32
46347;BME280;32057;47.830;19.046;2023-03-04T10:34:22;100039.94;;;8.89;55.46
46347;BME280;32057;47.830;19.046;2023-03-04T10:37:00;100040.66;;;8.83;56.02
46347;BME280;32057;47.830;19.046;2023-03-04T10:39:35;100042.25;;;8.78;56.49
46347;BME280;32057;47.830;19.046;2023-03-04T10:44:29;100039.09;;;8.91;53.70
46347;BME280;32057;47.830;19.046;2023-03-04T10:47:08;100033.78;;;8.85;53.22
46347;BME280;32057;47.830;19.046;2023-03-04T10:49:49;100046.03;;;8.92;53.96
46347;BME280;32057;47.830;19.046;2023-03-04T10:52:28;100032.19;;;8.92;53.49
46347;BME280;32057;47.830;19.046;2023-03-04T10:55:00;100039.88;;;8.87;53.62
46347;BME280;32057;47.830;19.046;2023-03-04T10:57:39;100046.06;;;8.94;54.48
46347;BME280;32057;47.830;19.046;2023-03-04T11:02:41;100029.78;;;9.00;53.13
46347;BME280;32057;47.830;19.046;2023-03-04T11:05:25;100031.97;;;8.81;53.53
46347;BME280;32057;47.830;19.046;2023-03-04T11:07:59;100026.63;;;8.75;53.86
46347;BME280;32057;47.830;19.046;2023-03-04T11:10:29;100023.66;;;8.97;54.21
46347;BME280;32057;47.830;19.046;2023-03-04T11:13:18;100008.34;;;9.10;55.65
46347;BME280;32057;47.830;19.046;2023-03-04T11:20:58;100008.38;;;9.54;54.05
46347;BME280;32057;47.830;19.046;2023-03-04T11:23:44;99995.91;;;9.36;52.71
46347;BME280;32057;47.830;19.046;2023-03-04T11:26:25;99989.06;;;9.40;53.18
46347;BME280;32057;47.830;19.046;2023-03-04T11:39:54;99982.94;;;9.37;52.14
46347;BME280;32057;47.830;19.046;2023-03-04T11:42:40;99971.75;;;9.39;52.32
46347;BME280;32057;47.830;19.046;2023-03-04T11:45:12;99981.63;;;9.60;53.84
46347;BME280;32057;47.830;19.046;2023-03-04T12:04:05;99942.06;;;9.74;49.48
46347;BME280;32057;47.830;19.046;2023-03-04T12:31:44;99897.63;;;10.12;45.92
46347;BME280;32057;47.830;19.046;2023-03-04T12:34:27;99899.72;;;9.80;45.78
46347;BME280;32057;47.830;19.046;2023-03-04T12:39:36;99881.84;;;10.00;45.61
46347;BME280;32057;47.830;19.046;2023-03-04T12:44:59;99876.88;;;10.15;44.88
46347;BME280;32057;47.830;19.046;2023-03-04T12:55:38;99844.25;;;10.36;44.81
46347;BME280;32057;47.830;19.046;2023-03-04T12:58:26;99849.50;;;10.39;42.26
46347;BME280;32057;47.830;19.046;2023-03-04T13:01:05;99842.63;;;10.44;42.22
46347;BME280;32057;47.830;19.046;2023-03-04T13:03:51;99836.75;;;10.57;41.50
46347;BME280;32057;47.830;19.046;2023-03-04T13:06:38;99834.03;;;10.50;41.33
46347;BME280;32057;47.830;19.046;2023-03-04T13:09:25;99827.94;;;10.48;40.42
46347;BME280;32057;47.830;19.046;2023-03-04T13:12:02;99826.91;;;10.35;39.24
46347;BME280;32057;47.830;19.046;2023-03-04T13:14:30;99824.75;;;10.06;40.48
46347;BME280;32057;47.830;19.046;2023-03-04T13:16:58;99821.31;;;10.07;40.73
46347;BME280;32057;47.830;19.046;2023-03-04T13:19:57;99814.63;;;10.25;41.29
46347;BME280;32057;47.830;19.046;2023-03-04T13:43:41;99792.50;;;10.57;40.74
46347;BME280;32057;47.830;19.046;2023-03-04T13:51:38;99798.22;;;10.29;40.58
46347;BME280;32057;47.830;19.046;2023-03-04T13:56:45;99791.03;;;10.12;42.72
46347;BME280;32057;47.830;19.046;2023-03-04T14:02:01;99803.38;;;9.66;41.25
46347;BME280;32057;47.830;19.046;2023-03-04T14:04:36;99803.44;;;9.69;42.53
46347;BME280;32057;47.830;19.046;2023-03-04T14:07:19;99800.91;;;9.75;42.59
46347;BME280;32057;47.830;19.046;2023-03-04T14:09:54;99812.28;;;9.81;42.38
46347;BME280;32057;47.830;19.046;2023-03-04T14:12:20;99817.34;;;9.74;42.06
46347;BME280;32057;47.830;19.046;2023-03-04T14:14:54;99809.03;;;9.97;46.81
46347;BME280;32057;47.830;19.046;2023-03-04T14:17:27;99814.19;;;9.94;42.01
46347;BME280;32057;47.830;19.046;2023-03-04T14:19:54;99816.56;;;9.80;43.28
46347;BME280;32057;47.830;19.046;2023-03-04T14:22:25;99813.72;;;9.63;43.45
46347;BME280;32057;47.830;19.046;2023-03-04T14:27:43;99819.38;;;9.37;44.31
46347;BME280;32057;47.830;19.046;2023-03-04T14:30:24;99813.97;;;9.25;44.80
46347;BME280;32057;47.830;19.046;2023-03-04T14:32:52;99812.41;;;9.35;45.31
46347;BME280;32057;47.830;19.046;2023-03-04T14:35:21;99800.41;;;9.43;44.69
46347;BME280;32057;47.830;19.046;2023-03-04T14:37:53;99813.22;;;9.32;44.36
46347;BME280;32057;47.830;19.046;2023-03-04T14:40:22;99809.78;;;9.33;44.47
46347;BME280;32057;47.830;19.046;2023-03-04T14:43:01;99818.41;;;9.32;45.12
46347;BME280;32057;47.830;19.046;2023-03-04T14:45:28;99821.53;;;9.13;44.62
46347;BME280;32057;47.830;19.046;2023-03-04T14:47:57;99824.03;;;9.07;44.00
46347;BME280;32057;47.830;19.046;2023-03-04T14:50:25;99817.00;;;9.01;43.89
46347;BME280;32057;47.830;19.046;2023-03-04T14:53:32;99810.97;;;9.04;42.40
46347;BME280;32057;47.830;19.046;2023-03-04T14:55:59;99818.78;;;9.04;42.73
46347;BME280;32057;47.830;19.046;2023-03-04T14:58:28;99809.25;;;9.03;41.52
46347;BME280;32057;47.830;19.046;2023-03-04T15:01:13;99815.31;;;9.03;40.72
46347;BME280;32057;47.830;19.046;2023-03-04T15:03:40;99806.59;;;9.00;41.59
46347;BME280;32057;47.830;19.046;2023-03-04T15:06:20;99816.09;;;8.99;41.72
46347;BME280;32057;47.830;19.046;2023-03-04T15:08:54;99802.97;;;8.91;41.66